Date,TemperatureHighF,TemperatureAvgF,TemperatureLowF,DewpointHighF,DewpointAvgF,DewpointLowF,HumidityHigh,HumidityAvg,HumidityLow,PressureMaxIn,PressureMinIn,WindSpeedMaxMPH,WindSpeedAvgMPH,GustSpeedMaxMPH,PrecipitationSumIn
2013-2-1,59.8,46.7,38.3,40.5,34.7,26.8,90,65,40,30.42,30.31,14,0,14,0.00
2013-2-2,65.0,47.6,32.0,46.2,34.3,22.9,88,62,33,30.40,30.20,11,0,11,0.00
2013-2-3,66.8,54.0,43.2,49.0,42.3,35.8,94,69,33,30.27,30.12,13,1,13,0.02
2013-2-4,64.8,53.3,41.4,52.1,44.7,36.9,89,74,45,30.16,30.01,6,0,6,0.00
2013-2-5,66.5,58.1,52.8,62.3,55.8,51.0,96,92,83,30.07,29.99,7,0,7,0.14
2013-2-6,71.2,60.5,55.7,61.3,56.6,53.6,97,88,68,30.18,30.06,10,1,10,0.01
2013-2-7,71.2,62.2,56.1,63.5,59.0,54.1,97,90,74,30.07,29.82,22,1,22,1.77
2013-2-8,70.5,60.1,51.4,62.2,55.4,49.7,96,85,68,30.17,29.95,14,1,14,0.00
2013-2-9,67.7,53.8,41.9,51.3,44.6,39.5,92,74,38,30.28,30.17,16,1,16,0.00
2013-2-10,69.8,60.1,44.9,68.3,57.3,42.4,95,90,82,30.20,30.03,19,1,19,0.00
2013-2-11,76.0,65.4,57.2,72.2,63.7,55.4,97,94,80,30.12,30.03,19,2,19,2.24
2013-2-12,70.9,64.1,57.5,69.7,62.5,56.1,97,94,87,30.07,29.77,23,2,23,0.32
2013-2-13,69.5,56.9,45.9,68.6,53.8,44.5,97,90,68,30.07,29.78,16,1,16,0.12
2013-2-14,55.4,47.3,39.9,45.0,41.8,37.2,95,82,66,30.17,30.03,7,0,8,0.01
2013-2-15,65.5,50.1,35.0,47.8,41.0,33.1,95,74,42,30.19,30.04,10,0,10,0.00
2013-2-16,55.1,46.5,35.6,43.3,32.1,21.1,85,60,33,30.30,30.06,22,2,22,0.00
2013-2-17,56.4,41.2,29.8,32.2,26.1,17.7,83,58,28,30.42,30.29,9,0,9,0.00
2013-2-18,65.0,49.0,33.8,47.3,39.7,29.5,88,72,49,30.36,30.11,16,1,18,0.00
2013-2-19,66.3,59.0,42.0,61.4,48.9,30.4,96,71,40,30.22,30.02,15,1,15,0.27
2013-2-20,58.5,46.6,35.3,39.3,30.7,25.1,76,56,32,30.28,30.12,16,1,16,0.00
2013-2-21,68.0,54.4,37.4,62.1,44.8,31.6,94,72,44,30.16,29.96,12,1,12,0.00
2013-2-22,70.3,66.6,63.9,69.6,65.7,62.1,98,97,94,30.00,29.90,9,0,9,2.09
2013-2-23,70.7,61.7,55.7,70.0,60.8,54.7,98,97,95,29.97,29.80,13,0,13,0.79
2013-2-24,71.3,60.4,51.2,56.7,52.9,50.1,97,78,51,30.02,29.87,14,1,14,0.49
2013-2-25,66.5,60.3,56.0,63.4,58.6,53.7,97,94,85,29.91,29.55,18,3,18,2.09
2013-2-26,66.2,57.9,50.1,65.3,51.5,45.4,97,80,56,29.93,29.52,19,2,19,0.36
2013-2-27,65.0,53.0,43.5,47.7,44.4,40.8,93,74,50,30.04,29.92,13,0,13,0.00
2013-2-28,61.4,50.9,43.6,45.3,39.5,35.6,91,67,41,30.08,29.98,14,1,14,0.00